sensor_id;sensor_type;location;lat;lon;timestamp;P1;durP1;ratioP1;P2;durP2;ratioP2
43086;SDS011;28708;52.224;6.924;2022-12-05T00:02:08;70.93;;;34.70;;
43086;SDS011;28708;52.224;6.924;2022-12-05T00:04:34;77.00;;;37.30;;
43086;SDS011;28708;52.224;6.924;2022-12-05T00:07:00;84.87;;;40.93;;
43086;SDS011;28708;52.224;6.924;2022-12-05T00:09:25;75.37;;;37.50;;
43086;SDS011;28708;52.224;6.924;2022-12-05T00:11:51;76.60;;;36.87;;
43086;SDS011;28708;52.224;6.924;2022-12-05T00:14:17;81.97;;;37.57;;
43086;SDS011;28708;52.224;6.924;2022-12-05T00:16:42;74.67;;;37.90;;
43086;SDS011;28708;52.224;6.924;2022-12-05T00:19:10;79.17;;;37.40;;
43086;SDS011;28708;52.224;6.924;2022-12-05T00:21:37;73.80;;;37.43;;
43086;SDS011;28708;52.224;6.924;2022-12-05T00:24:04;81.07;;;38.47;;
43086;SDS011;28708;52.224;6.924;2022-12-05T00:26:30;82.07;;;39.73;;
43086;SDS011;28708;52.224;6.924;2022-12-05T00:28:56;78.07;;;38.17;;
43086;SDS011;28708;52.224;6.924;2022-12-05T00:31:23;79.93;;;38.80;;
43086;SDS011;28708;52.224;6.924;2022-12-05T00:33:50;74.80;;;38.73;;
43086;SDS011;28708;52.224;6.924;2022-12-05T00:36:18;72.33;;;36.73;;
43086;SDS011;28708;52.224;6.924;2022-12-05T00:38:45;68.37;;;36.23;;
43086;SDS011;28708;52.224;6.924;2022-12-05T00:41:12;76.80;;;37.13;;
43086;SDS011;28708;52.224;6.924;2022-12-05T00:43:39;73.80;;;37.07;;
43086;SDS011;28708;52.224;6.924;2022-12-05T00:46:06;75.93;;;37.50;;
43086;SDS011;28708;52.224;6.924;2022-12-05T00:48:35;79.93;;;36.17;;
43086;SDS011;28708;52.224;6.924;2022-12-05T00:51:05;72.73;;;35.87;;
43086;SDS011;28708;52.224;6.924;2022-12-05T00:53:32;76.37;;;36.80;;
43086;SDS011;28708;52.224;6.924;2022-12-05T00:56:06;72.10;;;34.87;;
43086;SDS011;28708;52.224;6.924;2022-12-05T00:58:33;71.73;;;36.30;;
43086;SDS011;28708;52.224;6.924;2022-12-05T01:01:06;82.47;;;37.43;;
43086;SDS011;28708;52.224;6.924;2022-12-05T01:03:38;80.70;;;38.17;;
43086;SDS011;28708;52.224;6.924;2022-12-05T01:06:04;70.87;;;35.93;;
43086;SDS011;28708;52.224;6.924;2022-12-05T01:08:31;74.57;;;35.93;;
43086;SDS011;28708;52.224;6.924;2022-12-05T01:10:58;79.27;;;39.03;;
43086;SDS011;28708;52.224;6.924;2022-12-05T01:13:24;81.17;;;37.70;;
43086;SDS011;28708;52.224;6.924;2022-12-05T01:15:51;73.17;;;36.57;;
43086;SDS011;28708;52.224;6.924;2022-12-05T01:18:17;69.97;;;35.73;;
43086;SDS011;28708;52.224;6.924;2022-12-05T01:20:43;80.40;;;36.47;;
43086;SDS011;28708;52.224;6.924;2022-12-05T01:23:09;68.03;;;35.17;;
43086;SDS011;28708;52.224;6.924;2022-12-05T01:25:38;76.10;;;37.07;;
43086;SDS011;28708;52.224;6.924;2022-12-05T01:28:05;76.63;;;37.83;;
43086;SDS011;28708;52.224;6.924;2022-12-05T01:30:31;71.83;;;35.90;;
43086;SDS011;28708;52.224;6.924;2022-12-05T01:32:57;73.60;;;36.30;;
43086;SDS011;28708;52.224;6.924;2022-12-05T01:35:23;68.77;;;34.67;;
43086;SDS011;28708;52.224;6.924;2022-12-05T01:37:49;72.00;;;35.13;;
43086;SDS011;28708;52.224;6.924;2022-12-05T01:40:16;66.77;;;36.33;;
43086;SDS011;28708;52.224;6.924;2022-12-05T01:42:42;69.80;;;36.30;;
43086;SDS011;28708;52.224;6.924;2022-12-05T01:45:15;68.37;;;34.90;;
43086;SDS011;28708;52.224;6.924;2022-12-05T01:47:42;70.73;;;35.07;;
43086;SDS011;28708;52.224;6.924;2022-12-05T01:50:09;70.63;;;34.60;;
43086;SDS011;28708;52.224;6.924;2022-12-05T01:52:36;68.50;;;35.27;;
43086;SDS011;28708;52.224;6.924;2022-12-05T01:55:05;74.47;;;37.53;;
43086;SDS011;28708;52.224;6.924;2022-12-05T01:57:34;70.63;;;34.73;;
43086;SDS011;28708;52.224;6.924;2022-12-05T02:00:07;69.10;;;36.90;;
43086;SDS011;28708;52.224;6.924;2022-12-05T02:02:49;70.90;;;36.17;;
43086;SDS011;28708;52.224;6.924;2022-12-05T02:05:22;65.80;;;34.33;;
43086;SDS011;28708;52.224;6.924;2022-12-05T02:07:54;72.83;;;35.67;;
43086;SDS011;28708;52.224;6.924;2022-12-05T02:10:25;72.53;;;35.47;;
43086;SDS011;28708;52.224;6.924;2022-12-05T02:12:52;64.00;;;34.13;;
43086;SDS011;28708;52.224;6.924;2022-12-05T02:15:36;71.23;;;36.67;;
43086;SDS011;28708;52.224;6.924;2022-12-05T02:32:10;65.33;;;34.50;;
43086;SDS011;28708;52.224;6.924;2022-12-05T02:34:44;63.53;;;33.57;;
43086;SDS011;28708;52.224;6.924;2022-12-05T02:37:21;72.30;;;35.93;;
43086;SDS011;28708;52.224;6.924;2022-12-05T02:39:55;65.47;;;34.73;;
43086;SDS011;28708;52.224;6.924;2022-12-05T02:45:17;65.57;;;33.97;;
43086;SDS011;28708;52.224;6.924;2022-12-05T02:47:48;67.35;;;33.38;;
43086;SDS011;28708;52.224;6.924;2022-12-05T02:50:17;68.30;;;35.23;;
43086;SDS011;28708;52.224;6.924;2022-12-05T02:52:46;65.82;;;35.22;;
43086;SDS011;28708;52.224;6.924;2022-12-05T02:55:14;66.60;;;36.13;;
43086;SDS011;28708;52.224;6.924;2022-12-05T02:57:43;67.93;;;36.23;;
43086;SDS011;28708;52.224;6.924;2022-12-05T03:00:14;66.23;;;35.60;;
43086;SDS011;28708;52.224;6.924;2022-12-05T03:02:40;71.50;;;35.67;;
43086;SDS011;28708;52.224;6.924;2022-12-05T03:07:54;66.93;;;36.80;;
43086;SDS011;28708;52.224;6.924;2022-12-05T03:10:22;67.23;;;36.00;;
43086;SDS011;28708;52.224;6.924;2022-12-05T03:12:51;69.77;;;36.67;;
43086;SDS011;28708;52.224;6.924;2022-12-05T03:15:31;71.03;;;36.97;;
43086;SDS011;28708;52.224;6.924;2022-12-05T03:20:44;72.90;;;37.50;;
43086;SDS011;28708;52.224;6.924;2022-12-05T03:23:23;69.13;;;35.73;;
43086;SDS011;28708;52.224;6.924;2022-12-05T03:26:17;73.43;;;37.70;;
43086;SDS011;28708;52.224;6.924;2022-12-05T03:31:44;71.07;;;36.07;;
43086;SDS011;28708;52.224;6.924;2022-12-05T03:34:19;81.93;;;40.20;;
43086;SDS011;28708;52.224;6.924;2022-12-05T03:36:54;77.40;;;38.40;;
43086;SDS011;28708;52.224;6.924;2022-12-05T03:39:22;75.97;;;38.80;;
43086;SDS011;28708;52.224;6.924;2022-12-05T03:48:13;76.93;;;40.20;;
43086;SDS011;28708;52.224;6.924;2022-12-05T03:50:23;75.83;;;40.20;;
43086;SDS011;28708;52.224;6.924;2022-12-05T03:52:53;72.30;;;38.67;;
43086;SDS011;28708;52.224;6.924;2022-12-05T03:55:32;80.32;;;40.53;;
43086;SDS011;28708;52.224;6.924;2022-12-05T03:58:14;75.63;;;39.63;;
43086;SDS011;28708;52.224;6.924;2022-12-05T04:00:45;79.87;;;41.47;;
43086;SDS011;28708;52.224;6.924;2022-12-05T04:03:48;72.53;;;39.67;;
43086;SDS011;28708;52.224;6.924;2022-12-05T04:06:32;82.40;;;41.30;;
43086;SDS011;28708;52.224;6.924;2022-12-05T04:09:09;81.10;;;41.73;;
43086;SDS011;28708;52.224;6.924;2022-12-05T04:11:54;84.33;;;42.57;;
43086;SDS011;28708;52.224;6.924;2022-12-05T04:14:36;86.83;;;41.87;;
43086;SDS011;28708;52.224;6.924;2022-12-05T04:17:30;81.10;;;39.25;;
43086;SDS011;28708;52.224;6.924;2022-12-05T04:20:12;75.70;;;40.20;;
43086;SDS011;28708;52.224;6.924;2022-12-05T04:23:03;88.10;;;42.83;;
43086;SDS011;28708;52.224;6.924;2022-12-05T04:25:35;85.30;;;40.80;;
43086;SDS011;28708;52.224;6.924;2022-12-05T04:28:17;73.60;;;39.10;;
43086;SDS011;28708;52.224;6.924;2022-12-05T04:31:07;83.97;;;41.57;;
43086;SDS011;28708;52.224;6.924;2022-12-05T04:33:41;87.97;;;42.72;;
43086;SDS011;28708;52.224;6.924;2022-12-05T04:36:18;75.87;;;41.07;;
43086;SDS011;28708;52.224;6.924;2022-12-05T04:38:49;76.40;;;40.83;;
43086;SDS011;28708;52.224;6.924;2022-12-05T04:41:23;74.03;;;38.70;;
43086;SDS011;28708;52.224;6.924;2022-12-05T04:43:59;77.82;;;40.38;;
43086;SDS011;28708;52.224;6.924;2022-12-05T04:46:29;78.33;;;41.80;;
43086;SDS011;28708;52.224;6.924;2022-12-05T04:48:55;73.10;;;39.20;;
43086;SDS011;28708;52.224;6.924;2022-12-05T04:51:24;77.30;;;40.63;;
43086;SDS011;28708;52.224;6.924;2022-12-05T04:53:55;75.95;;;40.08;;
43086;SDS011;28708;52.224;6.924;2022-12-05T04:56:25;76.57;;;39.23;;
43086;SDS011;28708;52.224;6.924;2022-12-05T04:58:54;71.20;;;36.58;;
43086;SDS011;28708;52.224;6.924;2022-12-05T05:01:21;69.40;;;37.63;;
43086;SDS011;28708;52.224;6.924;2022-12-05T05:06:58;69.20;;;36.67;;
43086;SDS011;28708;52.224;6.924;2022-12-05T05:09:24;65.67;;;36.17;;
43086;SDS011;28708;52.224;6.924;2022-12-05T05:11:49;70.73;;;38.60;;
43086;SDS011;28708;52.224;6.924;2022-12-05T05:14:15;75.83;;;39.33;;
43086;SDS011;28708;52.224;6.924;2022-12-05T05:16:41;70.77;;;36.63;;
43086;SDS011;28708;52.224;6.924;2022-12-05T05:19:07;65.87;;;36.70;;
43086;SDS011;28708;52.224;6.924;2022-12-05T05:21:35;73.27;;;38.33;;
43086;SDS011;28708;52.224;6.924;2022-12-05T05:24:02;68.83;;;38.57;;
43086;SDS011;28708;52.224;6.924;2022-12-05T05:26:29;72.10;;;36.97;;
43086;SDS011;28708;52.224;6.924;2022-12-05T05:28:57;66.33;;;36.93;;
43086;SDS011;28708;52.224;6.924;2022-12-05T05:31:24;67.07;;;36.40;;
43086;SDS011;28708;52.224;6.924;2022-12-05T05:33:51;70.17;;;35.33;;
43086;SDS011;28708;52.224;6.924;2022-12-05T05:36:18;64.77;;;35.50;;
43086;SDS011;28708;52.224;6.924;2022-12-05T05:38:48;66.10;;;34.57;;
43086;SDS011;28708;52.224;6.924;2022-12-05T05:41:23;67.23;;;36.47;;
43086;SDS011;28708;52.224;6.924;2022-12-05T05:43:50;62.87;;;33.73;;
43086;SDS011;28708;52.224;6.924;2022-12-05T05:46:18;62.20;;;34.27;;
43086;SDS011;28708;52.224;6.924;2022-12-05T05:48:45;59.37;;;33.20;;
43086;SDS011;28708;52.224;6.924;2022-12-05T05:51:12;64.13;;;34.40;;
43086;SDS011;28708;52.224;6.924;2022-12-05T05:53:39;62.07;;;34.13;;
43086;SDS011;28708;52.224;6.924;2022-12-05T05:56:09;62.33;;;33.13;;
43086;SDS011;28708;52.224;6.924;2022-12-05T05:58:36;59.40;;;32.63;;
43086;SDS011;28708;52.224;6.924;2022-12-05T06:01:03;64.17;;;33.30;;
43086;SDS011;28708;52.224;6.924;2022-12-05T06:03:30;57.43;;;31.83;;
43086;SDS011;28708;52.224;6.924;2022-12-05T06:06:00;61.13;;;32.10;;
43086;SDS011;28708;52.224;6.924;2022-12-05T06:08:28;55.40;;;29.93;;
43086;SDS011;28708;52.224;6.924;2022-12-05T06:10:54;58.17;;;32.07;;
43086;SDS011;28708;52.224;6.924;2022-12-05T06:13:20;53.30;;;30.07;;
43086;SDS011;28708;52.224;6.924;2022-12-05T06:15:46;59.63;;;32.07;;
43086;SDS011;28708;52.224;6.924;2022-12-05T06:18:11;59.53;;;32.67;;
43086;SDS011;28708;52.224;6.924;2022-12-05T06:20:37;58.37;;;32.33;;
43086;SDS011;28708;52.224;6.924;2022-12-05T06:23:02;54.60;;;30.60;;
43086;SDS011;28708;52.224;6.924;2022-12-05T06:25:28;55.93;;;29.63;;
43086;SDS011;28708;52.224;6.924;2022-12-05T06:27:54;53.77;;;30.40;;
43086;SDS011;28708;52.224;6.924;2022-12-05T06:30:20;57.57;;;32.03;;
43086;SDS011;28708;52.224;6.924;2022-12-05T06:32:45;58.03;;;31.37;;
43086;SDS011;28708;52.224;6.924;2022-12-05T06:35:11;53.50;;;30.30;;
43086;SDS011;28708;52.224;6.924;2022-12-05T06:37:43;57.60;;;30.43;;
43086;SDS011;28708;52.224;6.924;2022-12-05T06:40:12;52.38;;;30.05;;
43086;SDS011;28708;52.224;6.924;2022-12-05T06:42:39;62.67;;;32.43;;
43086;SDS011;28708;52.224;6.924;2022-12-05T06:45:05;56.93;;;30.57;;
43086;SDS011;28708;52.224;6.924;2022-12-05T06:47:31;60.20;;;31.47;;
43086;SDS011;28708;52.224;6.924;2022-12-05T06:49:57;56.17;;;30.03;;
43086;SDS011;28708;52.224;6.924;2022-12-05T06:52:22;59.90;;;31.30;;
43086;SDS011;28708;52.224;6.924;2022-12-05T06:54:48;57.27;;;29.97;;
43086;SDS011;28708;52.224;6.924;2022-12-05T06:57:14;60.20;;;33.23;;
43086;SDS011;28708;52.224;6.924;2022-12-05T06:59:39;61.47;;;32.70;;
43086;SDS011;28708;52.224;6.924;2022-12-05T07:02:05;52.57;;;29.60;;
43086;SDS011;28708;52.224;6.924;2022-12-05T07:04:32;61.17;;;31.60;;
43086;SDS011;28708;52.224;6.924;2022-12-05T07:06:58;60.40;;;32.13;;
43086;SDS011;28708;52.224;6.924;2022-12-05T07:09:26;58.37;;;31.23;;
43086;SDS011;28708;52.224;6.924;2022-12-05T07:12:15;56.53;;;31.73;;
43086;SDS011;28708;52.224;6.924;2022-12-05T07:14:42;59.53;;;32.20;;
43086;SDS011;28708;52.224;6.924;2022-12-05T07:17:08;59.80;;;31.63;;
43086;SDS011;28708;52.224;6.924;2022-12-05T07:19:34;61.93;;;30.77;;
43086;SDS011;28708;52.224;6.924;2022-12-05T07:22:00;50.57;;;29.53;;
43086;SDS011;28708;52.224;6.924;2022-12-05T07:24:26;55.80;;;30.67;;
43086;SDS011;28708;52.224;6.924;2022-12-05T07:26:51;52.70;;;29.47;;
43086;SDS011;28708;52.224;6.924;2022-12-05T07:29:17;62.77;;;34.00;;
43086;SDS011;28708;52.224;6.924;2022-12-05T07:31:43;59.93;;;30.80;;
43086;SDS011;28708;52.224;6.924;2022-12-05T07:34:09;59.73;;;32.40;;
43086;SDS011;28708;52.224;6.924;2022-12-05T07:36:34;62.57;;;31.80;;
43086;SDS011;28708;52.224;6.924;2022-12-05T07:39:00;54.80;;;30.93;;
43086;SDS011;28708;52.224;6.924;2022-12-05T07:41:27;57.23;;;32.40;;
43086;SDS011;28708;52.224;6.924;2022-12-05T07:43:55;63.63;;;32.37;;
43086;SDS011;28708;52.224;6.924;2022-12-05T07:46:22;57.50;;;31.03;;
43086;SDS011;28708;52.224;6.924;2022-12-05T07:48:49;57.40;;;31.07;;
43086;SDS011;28708;52.224;6.924;2022-12-05T07:51:15;60.80;;;32.73;;
43086;SDS011;28708;52.224;6.924;2022-12-05T07:53:41;59.67;;;31.20;;
43086;SDS011;28708;52.224;6.924;2022-12-05T07:56:08;65.37;;;32.13;;
43086;SDS011;28708;52.224;6.924;2022-12-05T07:58:41;72.00;;;34.20;;
43086;SDS011;28708;52.224;6.924;2022-12-05T08:01:12;63.08;;;31.88;;
43086;SDS011;28708;52.224;6.924;2022-12-05T08:03:39;58.80;;;31.50;;
43086;SDS011;28708;52.224;6.924;2022-12-05T08:06:07;66.20;;;33.87;;
43086;SDS011;28708;52.224;6.924;2022-12-05T08:08:34;58.33;;;30.97;;
43086;SDS011;28708;52.224;6.924;2022-12-05T08:11:04;62.27;;;31.57;;
43086;SDS011;28708;52.224;6.924;2022-12-05T08:13:38;66.80;;;31.93;;
43086;SDS011;28708;52.224;6.924;2022-12-05T08:16:04;64.17;;;32.73;;
43086;SDS011;28708;52.224;6.924;2022-12-05T08:18:32;73.93;;;33.87;;
43086;SDS011;28708;52.224;6.924;2022-12-05T08:21:04;75.80;;;35.83;;
43086;SDS011;28708;52.224;6.924;2022-12-05T08:23:31;73.23;;;35.47;;
43086;SDS011;28708;52.224;6.924;2022-12-05T08:26:01;71.83;;;34.77;;
43086;SDS011;28708;52.224;6.924;2022-12-05T08:28:28;76.53;;;36.03;;
43086;SDS011;28708;52.224;6.924;2022-12-05T08:30:54;78.73;;;37.27;;
43086;SDS011;28708;52.224;6.924;2022-12-05T08:33:19;84.77;;;37.30;;
43086;SDS011;28708;52.224;6.924;2022-12-05T08:35:45;89.70;;;40.20;;
43086;SDS011;28708;52.224;6.924;2022-12-05T08:38:11;85.70;;;39.50;;
43086;SDS011;28708;52.224;6.924;2022-12-05T08:40:36;91.90;;;40.73;;
43086;SDS011;28708;52.224;6.924;2022-12-05T08:43:02;86.03;;;38.40;;
43086;SDS011;28708;52.224;6.924;2022-12-05T08:45:27;79.30;;;36.50;;
43086;SDS011;28708;52.224;6.924;2022-12-05T08:47:53;88.50;;;40.07;;
43086;SDS011;28708;52.224;6.924;2022-12-05T08:50:19;96.70;;;41.17;;
43086;SDS011;28708;52.224;6.924;2022-12-05T08:52:44;89.83;;;40.10;;
43086;SDS011;28708;52.224;6.924;2022-12-05T08:55:10;89.47;;;41.47;;
43086;SDS011;28708;52.224;6.924;2022-12-05T08:57:35;92.57;;;41.90;;
43086;SDS011;28708;52.224;6.924;2022-12-05T09:00:02;91.63;;;41.57;;
43086;SDS011;28708;52.224;6.924;2022-12-05T09:02:29;93.27;;;42.03;;
43086;SDS011;28708;52.224;6.924;2022-12-05T09:04:55;91.03;;;41.60;;
43086;SDS011;28708;52.224;6.924;2022-12-05T09:07:21;98.67;;;41.60;;
43086;SDS011;28708;52.224;6.924;2022-12-05T09:09:46;80.93;;;39.43;;
43086;SDS011;28708;52.224;6.924;2022-12-05T09:12:12;78.40;;;38.03;;
43086;SDS011;28708;52.224;6.924;2022-12-05T09:14:38;82.60;;;39.20;;
43086;SDS011;28708;52.224;6.924;2022-12-05T09:17:04;88.43;;;39.20;;
43086;SDS011;28708;52.224;6.924;2022-12-05T09:19:31;87.40;;;39.00;;
43086;SDS011;28708;52.224;6.924;2022-12-05T09:21:56;90.93;;;40.33;;
43086;SDS011;28708;52.224;6.924;2022-12-05T09:24:22;91.03;;;40.13;;
43086;SDS011;28708;52.224;6.924;2022-12-05T09:26:48;87.33;;;40.00;;
43086;SDS011;28708;52.224;6.924;2022-12-05T09:29:14;86.93;;;39.50;;
43086;SDS011;28708;52.224;6.924;2022-12-05T09:31:40;89.93;;;41.30;;
43086;SDS011;28708;52.224;6.924;2022-12-05T09:34:07;89.67;;;40.87;;
43086;SDS011;28708;52.224;6.924;2022-12-05T09:36:33;88.90;;;40.37;;
43086;SDS011;28708;52.224;6.924;2022-12-05T09:39:00;89.10;;;39.20;;
43086;SDS011;28708;52.224;6.924;2022-12-05T09:41:34;81.80;;;39.30;;
43086;SDS011;28708;52.224;6.924;2022-12-05T09:47:37;83.67;;;38.13;;
43086;SDS011;28708;52.224;6.924;2022-12-05T09:55:23;79.93;;;37.90;;
43086;SDS011;28708;52.224;6.924;2022-12-05T09:57:52;85.30;;;38.00;;
43086;SDS011;28708;52.224;6.924;2022-12-05T10:00:21;92.82;;;38.58;;
43086;SDS011;28708;52.224;6.924;2022-12-05T10:05:55;82.00;;;36.80;;
43086;SDS011;28708;52.224;6.924;2022-12-05T10:11:12;84.40;;;37.47;;
43086;SDS011;28708;52.224;6.924;2022-12-05T10:19:10;83.10;;;37.63;;
43086;SDS011;28708;52.224;6.924;2022-12-05T10:21:44;84.07;;;38.90;;
43086;SDS011;28708;52.224;6.924;2022-12-05T10:24:32;85.22;;;37.63;;
43086;SDS011;28708;52.224;6.924;2022-12-05T10:27:03;79.20;;;37.13;;
43086;SDS011;28708;52.224;6.924;2022-12-05T10:29:39;82.00;;;38.50;;
43086;SDS011;28708;52.224;6.924;2022-12-05T10:32:26;80.00;;;37.87;;
43086;SDS011;28708;52.224;6.924;2022-12-05T10:38:04;89.77;;;40.87;;
43086;SDS011;28708;52.224;6.924;2022-12-05T10:40:39;80.40;;;36.47;;
43086;SDS011;28708;52.224;6.924;2022-12-05T10:43:07;74.97;;;37.03;;
43086;SDS011;28708;52.224;6.924;2022-12-05T10:48:07;74.77;;;34.97;;
43086;SDS011;28708;52.224;6.924;2022-12-05T10:50:36;76.50;;;37.28;;
43086;SDS011;28708;52.224;6.924;2022-12-05T10:53:04;70.90;;;35.50;;
43086;SDS011;28708;52.224;6.924;2022-12-05T10:55:36;72.23;;;35.20;;
43086;SDS011;28708;52.224;6.924;2022-12-05T10:58:47;81.67;;;37.97;;
43086;SDS011;28708;52.224;6.924;2022-12-05T11:00:54;82.73;;;37.50;;
43086;SDS011;28708;52.224;6.924;2022-12-05T11:05:50;89.63;;;37.97;;
43086;SDS011;28708;52.224;6.924;2022-12-05T11:08:24;78.73;;;37.20;;
43086;SDS011;28708;52.224;6.924;2022-12-05T11:11:17;81.77;;;37.63;;
43086;SDS011;28708;52.224;6.924;2022-12-05T11:13:55;82.77;;;38.00;;
43086;SDS011;28708;52.224;6.924;2022-12-05T11:16:25;68.37;;;34.60;;
43086;SDS011;28708;52.224;6.924;2022-12-05T11:18:51;77.37;;;37.43;;
43086;SDS011;28708;52.224;6.924;2022-12-05T11:21:17;79.67;;;38.83;;
43086;SDS011;28708;52.224;6.924;2022-12-05T11:23:44;76.27;;;35.87;;
43086;SDS011;28708;52.224;6.924;2022-12-05T11:26:18;74.80;;;34.67;;
43086;SDS011;28708;52.224;6.924;2022-12-05T11:28:59;71.25;;;36.40;;
43086;SDS011;28708;52.224;6.924;2022-12-05T11:31:26;73.30;;;34.27;;
43086;SDS011;28708;52.224;6.924;2022-12-05T11:34:02;65.17;;;33.13;;
43086;SDS011;28708;52.224;6.924;2022-12-05T11:36:51;64.57;;;32.93;;
43086;SDS011;28708;52.224;6.924;2022-12-05T11:39:21;66.87;;;34.00;;
43086;SDS011;28708;52.224;6.924;2022-12-05T11:44:46;64.80;;;32.60;;
43086;SDS011;28708;52.224;6.924;2022-12-05T12:01:24;48.73;;;26.80;;
43086;SDS011;28708;52.224;6.924;2022-12-05T12:04:24;46.57;;;26.80;;
43086;SDS011;28708;52.224;6.924;2022-12-05T12:09:46;47.17;;;26.20;;
43086;SDS011;28708;52.224;6.924;2022-12-05T12:12:43;43.60;;;25.80;;
43086;SDS011;28708;52.224;6.924;2022-12-05T12:29:28;37.37;;;22.23;;
43086;SDS011;28708;52.224;6.924;2022-12-05T12:37:46;36.25;;;22.77;;
43086;SDS011;28708;52.224;6.924;2022-12-05T12:40:21;43.13;;;24.00;;
43086;SDS011;28708;52.224;6.924;2022-12-05T12:43:07;41.07;;;22.47;;
43086;SDS011;28708;52.224;6.924;2022-12-05T12:45:49;37.40;;;22.53;;
43086;SDS011;28708;52.224;6.924;2022-12-05T12:51:12;39.03;;;23.13;;
43086;SDS011;28708;52.224;6.924;2022-12-05T12:59:20;42.63;;;23.17;;
43086;SDS011;28708;52.224;6.924;2022-12-05T13:05:07;36.47;;;20.37;;
43086;SDS011;28708;52.224;6.924;2022-12-05T13:07:46;37.07;;;21.43;;
43086;SDS011;28708;52.224;6.924;2022-12-05T13:12:45;36.07;;;22.00;;
43086;SDS011;28708;52.224;6.924;2022-12-05T13:15:13;35.77;;;20.83;;
43086;SDS011;28708;52.224;6.924;2022-12-05T13:17:43;34.57;;;20.13;;
43086;SDS011;28708;52.224;6.924;2022-12-05T13:20:15;31.87;;;19.20;;
43086;SDS011;28708;52.224;6.924;2022-12-05T13:22:42;31.43;;;19.17;;
43086;SDS011;28708;52.224;6.924;2022-12-05T13:25:12;34.93;;;21.00;;
43086;SDS011;28708;52.224;6.924;2022-12-05T13:27:57;36.40;;;22.20;;
43086;SDS011;28708;52.224;6.924;2022-12-05T13:30:25;34.33;;;21.10;;
43086;SDS011;28708;52.224;6.924;2022-12-05T13:33:03;39.87;;;23.40;;
43086;SDS011;28708;52.224;6.924;2022-12-05T13:35:35;36.85;;;22.10;;
43086;SDS011;28708;52.224;6.924;2022-12-05T13:38:27;43.23;;;26.60;;
43086;SDS011;28708;52.224;6.924;2022-12-05T13:41:13;41.40;;;24.43;;
43086;SDS011;28708;52.224;6.924;2022-12-05T13:43:58;36.03;;;21.60;;
43086;SDS011;28708;52.224;6.924;2022-12-05T13:46:26;40.97;;;23.90;;
43086;SDS011;28708;52.224;6.924;2022-12-05T13:49:07;38.07;;;20.93;;
43086;SDS011;28708;52.224;6.924;2022-12-05T13:51:41;39.30;;;20.10;;
43086;SDS011;28708;52.224;6.924;2022-12-05T13:54:17;31.80;;;19.23;;
43086;SDS011;28708;52.224;6.924;2022-12-05T14:07:45;29.77;;;18.03;;
43086;SDS011;28708;52.224;6.924;2022-12-05T14:15:40;30.40;;;19.57;;
43086;SDS011;28708;52.224;6.924;2022-12-05T14:29:10;31.90;;;19.97;;
43086;SDS011;28708;52.224;6.924;2022-12-05T14:39:59;34.07;;;20.73;;
43086;SDS011;28708;52.224;6.924;2022-12-05T14:50:46;30.80;;;19.87;;
43086;SDS011;28708;52.224;6.924;2022-12-05T14:55:42;30.47;;;18.60;;
43086;SDS011;28708;52.224;6.924;2022-12-05T14:58:12;28.90;;;17.93;;
43086;SDS011;28708;52.224;6.924;2022-12-05T15:00:55;28.92;;;17.50;;
43086;SDS011;28708;52.224;6.924;2022-12-05T15:03:24;31.20;;;18.30;;
43086;SDS011;28708;52.224;6.924;2022-12-05T15:05:58;30.30;;;18.33;;
43086;SDS011;28708;52.224;6.924;2022-12-05T15:08:27;34.00;;;19.20;;
43086;SDS011;28708;52.224;6.924;2022-12-05T15:10:58;30.13;;;18.63;;
43086;SDS011;28708;52.224;6.924;2022-12-05T15:13:25;28.97;;;19.03;;
43086;SDS011;28708;52.224;6.924;2022-12-05T15:16:03;29.83;;;18.33;;
43086;SDS011;28708;52.224;6.924;2022-12-05T15:18:41;29.30;;;18.07;;
43086;SDS011;28708;52.224;6.924;2022-12-05T15:24:14;30.80;;;18.43;;
43086;SDS011;28708;52.224;6.924;2022-12-05T15:26:45;31.33;;;18.83;;
43086;SDS011;28708;52.224;6.924;2022-12-05T15:29:15;31.80;;;18.73;;
43086;SDS011;28708;52.224;6.924;2022-12-05T15:34:26;29.67;;;18.67;;
43086;SDS011;28708;52.224;6.924;2022-12-05T15:39:57;31.53;;;19.00;;
43086;SDS011;28708;52.224;6.924;2022-12-05T15:45:14;33.15;;;19.80;;
43086;SDS011;28708;52.224;6.924;2022-12-05T15:50:25;36.35;;;21.20;;
43086;SDS011;28708;52.224;6.924;2022-12-05T15:58:04;36.73;;;21.93;;
43086;SDS011;28708;52.224;6.924;2022-12-05T16:00:52;38.50;;;22.93;;
43086;SDS011;28708;52.224;6.924;2022-12-05T16:03:32;37.13;;;21.10;;
43086;SDS011;28708;52.224;6.924;2022-12-05T16:06:05;33.67;;;20.07;;
43086;SDS011;28708;52.224;6.924;2022-12-05T16:08:42;30.50;;;18.00;;
43086;SDS011;28708;52.224;6.924;2022-12-05T16:11:10;28.43;;;17.83;;
43086;SDS011;28708;52.224;6.924;2022-12-05T16:14:10;25.73;;;16.23;;
43086;SDS011;28708;52.224;6.924;2022-12-05T16:16:32;27.40;;;15.53;;
43086;SDS011;28708;52.224;6.924;2022-12-05T16:19:14;25.20;;;14.90;;
43086;SDS011;28708;52.224;6.924;2022-12-05T16:21:45;22.33;;;13.80;;
43086;SDS011;28708;52.224;6.924;2022-12-05T16:24:26;24.63;;;14.10;;
43086;SDS011;28708;52.224;6.924;2022-12-05T16:27:02;19.97;;;13.07;;
43086;SDS011;28708;52.224;6.924;2022-12-05T16:29:36;17.73;;;11.37;;
43086;SDS011;28708;52.224;6.924;2022-12-05T16:32:23;22.13;;;13.20;;
43086;SDS011;28708;52.224;6.924;2022-12-05T16:34:48;18.97;;;12.27;;
43086;SDS011;28708;52.224;6.924;2022-12-05T16:37:25;19.33;;;12.23;;
43086;SDS011;28708;52.224;6.924;2022-12-05T16:39:52;17.10;;;11.33;;
43086;SDS011;28708;52.224;6.924;2022-12-05T16:42:27;17.90;;;10.83;;
43086;SDS011;28708;52.224;6.924;2022-12-05T16:44:55;18.20;;;11.73;;
43086;SDS011;28708;52.224;6.924;2022-12-05T16:48:12;20.47;;;11.93;;
43086;SDS011;28708;52.224;6.924;2022-12-05T16:50:45;16.47;;;10.00;;
43086;SDS011;28708;52.224;6.924;2022-12-05T16:55:32;17.57;;;9.70;;
43086;SDS011;28708;52.224;6.924;2022-12-05T16:58:00;17.13;;;11.00;;
43086;SDS011;28708;52.224;6.924;2022-12-05T17:00:26;14.33;;;10.13;;
43086;SDS011;28708;52.224;6.924;2022-12-05T17:02:52;15.10;;;10.03;;
43086;SDS011;28708;52.224;6.924;2022-12-05T17:05:17;11.87;;;8.07;;
43086;SDS011;28708;52.224;6.924;2022-12-05T17:07:43;13.40;;;8.90;;
43086;SDS011;28708;52.224;6.924;2022-12-05T17:10:09;13.60;;;8.50;;
43086;SDS011;28708;52.224;6.924;2022-12-05T17:12:34;16.07;;;8.73;;
43086;SDS011;28708;52.224;6.924;2022-12-05T17:15:00;14.53;;;9.00;;
43086;SDS011;28708;52.224;6.924;2022-12-05T17:17:25;16.73;;;8.93;;
43086;SDS011;28708;52.224;6.924;2022-12-05T17:19:51;17.00;;;11.37;;
43086;SDS011;28708;52.224;6.924;2022-12-05T17:22:17;20.00;;;12.13;;
43086;SDS011;28708;52.224;6.924;2022-12-05T17:24:43;14.47;;;9.47;;
43086;SDS011;28708;52.224;6.924;2022-12-05T17:27:12;14.70;;;9.30;;
43086;SDS011;28708;52.224;6.924;2022-12-05T17:29:38;12.47;;;8.93;;
43086;SDS011;28708;52.224;6.924;2022-12-05T17:32:03;12.70;;;8.70;;
43086;SDS011;28708;52.224;6.924;2022-12-05T17:34:30;15.73;;;8.47;;
43086;SDS011;28708;52.224;6.924;2022-12-05T17:36:56;15.03;;;8.80;;
43086;SDS011;28708;52.224;6.924;2022-12-05T17:39:21;13.73;;;8.93;;
43086;SDS011;28708;52.224;6.924;2022-12-05T17:41:47;14.97;;;8.87;;
43086;SDS011;28708;52.224;6.924;2022-12-05T17:44:13;18.43;;;10.63;;
43086;SDS011;28708;52.224;6.924;2022-12-05T17:46:40;16.33;;;9.77;;